Westminster, Maryland
Current Conditions -  °F | °C
As of 3:00 PM on Sunday 21 Dec 2014 (Local Time) from KDMW Reporting Station
Clear Clear  
Wind Chill: 37°   Ceiling: Unl
Heat Index: 37°   Visibility: 10mi
Dew Point: 21°   Wind: 3mph
Humidity: 52%   Direction: 340°NNW
Pressure: 30.27"   Gusts: NA
Location:  39.57°N, 76.99°W
Report Text: KDMW 212000Z AUTO 34003KT 10SM CLR 03/M06 A3027 RMK AO2
Loading
Personal Weather Stations






























Interactive Weather Map New forecast layout! Learn more

10-Day Weather Forecast

Advertisements
Track Severe Weather on mobile